createdAt,value
2018-09-21T00:00:13.279Z,99.90
2018-09-21T00:02:44.954Z,99.90
2018-09-21T00:05:13.490Z,99.90
2018-09-21T00:07:42.169Z,99.90
2018-09-21T00:10:10.880Z,99.90
2018-09-21T00:12:39.418Z,99.90
2018-09-21T00:15:07.999Z,99.90
2018-09-21T00:17:36.688Z,99.90
2018-09-21T00:20:05.221Z,99.90
2018-09-21T00:22:33.764Z,99.90
2018-09-21T00:25:02.281Z,99.90
2018-09-21T00:27:30.835Z,99.90
2018-09-21T00:29:59.465Z,99.90
2018-09-21T00:32:28.028Z,99.90
2018-09-21T00:34:56.614Z,99.90
2018-09-21T00:37:25.229Z,99.90
2018-09-21T00:39:53.772Z,99.90
2018-09-21T00:42:22.289Z,99.90
2018-09-21T00:44:50.772Z,99.90
2018-09-21T00:47:19.404Z,99.90
2018-09-21T00:49:48.011Z,99.90
2018-09-21T00:52:16.561Z,99.90
2018-09-21T00:54:45.111Z,99.90
2018-09-21T00:57:13.688Z,99.90
2018-09-21T00:59:42.315Z,99.90
2018-09-21T01:02:10.901Z,99.90
2018-09-21T01:04:42.348Z,99.90
2018-09-21T01:07:12.195Z,99.90
2018-09-21T01:09:40.672Z,99.90
2018-09-21T01:12:09.356Z,99.90
2018-09-21T01:14:38.036Z,99.90
2018-09-21T01:17:06.711Z,99.90
2018-09-21T01:19:35.338Z,99.90
2018-09-21T01:22:04.515Z,99.90
2018-09-21T01:24:33.112Z,99.90
2018-09-21T01:27:01.700Z,99.90
2018-09-21T01:29:30.353Z,99.90
2018-09-21T01:31:58.869Z,99.90
2018-09-21T01:34:27.492Z,99.90
2018-09-21T01:36:56.104Z,99.90
2018-09-21T01:39:24.688Z,99.90
2018-09-21T01:41:53.274Z,99.90
2018-09-21T01:44:21.834Z,99.90
2018-09-21T01:46:51.073Z,99.90
2018-09-21T01:49:19.628Z,99.90
2018-09-21T01:51:48.180Z,99.90
2018-09-21T01:54:16.768Z,99.90
2018-09-21T01:56:45.339Z,99.90
2018-09-21T01:59:13.854Z,99.90
2018-09-21T02:01:42.396Z,99.90
2018-09-21T02:04:10.942Z,99.90
2018-09-21T02:06:39.548Z,99.90
2018-09-21T02:09:09.192Z,99.90
2018-09-21T02:11:37.822Z,99.90
2018-09-21T02:14:06.325Z,99.90
2018-09-21T02:16:34.959Z,99.90
2018-09-21T02:19:03.495Z,99.90
2018-09-21T02:21:32.106Z,99.90
2018-09-21T02:24:00.840Z,99.90
2018-09-21T02:26:29.503Z,99.90
2018-09-21T02:28:58.011Z,99.90
2018-09-21T02:31:26.671Z,99.90
2018-09-21T02:33:55.213Z,99.90
2018-09-21T02:36:23.802Z,99.90
2018-09-21T02:38:52.484Z,99.90
2018-09-21T02:41:21.004Z,99.90
2018-09-21T02:43:49.561Z,99.90
2018-09-21T02:46:18.098Z,99.90
2018-09-21T02:48:46.640Z,99.90
2018-09-21T02:51:15.343Z,99.90
2018-09-21T02:53:44.046Z,99.90
2018-09-21T02:56:12.705Z,99.90
2018-09-21T02:58:41.274Z,99.90
2018-09-21T03:01:09.941Z,99.90
2018-09-21T03:03:38.868Z,99.90
2018-09-21T03:06:07.490Z,99.90
2018-09-21T03:08:36.059Z,99.90
2018-09-21T03:11:04.637Z,99.90
2018-09-21T03:13:33.285Z,99.90
2018-09-21T03:16:01.804Z,99.90
2018-09-21T03:18:30.305Z,99.90
2018-09-21T03:20:58.816Z,99.90
2018-09-21T03:23:27.383Z,99.90
2018-09-21T03:25:55.962Z,99.90
2018-09-21T03:28:24.484Z,99.90
2018-09-21T03:30:53.102Z,99.90
2018-09-21T03:33:21.685Z,99.90
2018-09-21T03:35:50.779Z,99.90
2018-09-21T03:38:19.270Z,99.90
2018-09-21T03:40:47.857Z,99.90
2018-09-21T03:43:16.470Z,99.90
2018-09-21T03:45:45.040Z,99.90
2018-09-21T03:48:13.589Z,99.90
2018-09-21T03:50:42.287Z,99.90
2018-09-21T03:53:10.870Z,99.90
2018-09-21T03:55:39.455Z,99.90
2018-09-21T03:58:08.032Z,99.90
2018-09-21T04:00:36.565Z,99.90
2018-09-21T04:03:05.335Z,99.90
2018-09-21T04:05:33.837Z,99.90
2018-09-21T04:08:02.428Z,99.90
2018-09-21T04:10:31.055Z,99.90
2018-09-21T04:12:59.647Z,99.90
2018-09-21T04:15:28.185Z,99.90
2018-09-21T04:17:56.760Z,99.90
2018-09-21T04:20:25.340Z,99.90
2018-09-21T04:23:01.516Z,99.90
2018-09-21T04:25:30.753Z,99.90
2018-09-21T04:27:59.328Z,99.90
2018-09-21T04:30:28.435Z,99.90
2018-09-21T04:32:57.696Z,99.90
2018-09-21T04:35:26.581Z,99.90
2018-09-21T04:37:55.165Z,99.90
2018-09-21T04:40:23.829Z,99.90
2018-09-21T04:42:52.456Z,99.90
2018-09-21T04:45:21.010Z,99.90
2018-09-21T04:47:49.594Z,99.90
2018-09-21T04:50:18.117Z,99.90
2018-09-21T04:52:46.856Z,99.90
2018-09-21T04:55:15.424Z,99.90
2018-09-21T04:57:44.034Z,99.90
2018-09-21T05:00:12.586Z,99.90
2018-09-21T05:02:41.189Z,99.90
2018-09-21T05:05:09.799Z,99.90
2018-09-21T05:07:38.395Z,99.90
2018-09-21T05:10:07.001Z,99.90
2018-09-21T05:12:35.560Z,99.90
2018-09-21T05:15:04.229Z,99.90
2018-09-21T05:17:32.888Z,99.90
2018-09-21T05:20:01.497Z,99.90
2018-09-21T05:22:30.067Z,99.90
2018-09-21T05:24:58.640Z,99.90
2018-09-21T05:27:27.309Z,99.90
2018-09-21T05:29:56.212Z,99.90
2018-09-21T05:32:24.870Z,99.90
2018-09-21T05:34:53.551Z,99.90
2018-09-21T05:37:22.081Z,99.90
2018-09-21T05:39:50.663Z,99.90
2018-09-21T05:42:19.245Z,99.90
2018-09-21T05:44:47.866Z,99.90
2018-09-21T05:47:16.510Z,99.90
2018-09-21T05:49:45.041Z,99.90
2018-09-21T05:52:13.579Z,99.90
2018-09-21T05:54:42.123Z,99.90
2018-09-21T05:57:10.671Z,99.90
2018-09-21T05:59:39.225Z,99.90
2018-09-21T06:02:08.116Z,99.90
2018-09-21T06:04:36.656Z,99.90
2018-09-21T06:07:05.244Z,99.90
2018-09-21T06:09:33.769Z,99.90
2018-09-21T06:12:02.451Z,99.90
2018-09-21T06:14:31.033Z,99.90
2018-09-21T06:16:59.723Z,99.90
2018-09-21T06:19:28.305Z,99.90
2018-09-21T06:21:56.958Z,99.90
2018-09-21T06:24:25.605Z,99.90
2018-09-21T06:27:00.868Z,99.90
2018-09-21T06:29:29.490Z,99.90
2018-09-21T06:31:58.467Z,99.90
2018-09-21T06:34:27.088Z,99.90
2018-09-21T06:36:55.738Z,99.90
2018-09-21T06:39:24.341Z,99.90
2018-09-21T06:41:53.066Z,99.90
2018-09-21T06:44:21.569Z,99.90
2018-09-21T06:46:50.124Z,99.90
2018-09-21T06:49:18.706Z,99.90
2018-09-21T06:51:47.280Z,99.90
2018-09-21T06:54:15.817Z,99.90
2018-09-21T06:56:44.400Z,99.90
2018-09-21T06:59:12.961Z,99.90
2018-09-21T07:01:41.506Z,99.90
2018-09-21T07:04:10.210Z,99.90
2018-09-21T07:06:38.891Z,99.90
2018-09-21T07:09:12.803Z,99.90
2018-09-21T07:11:42.916Z,99.90
2018-09-21T07:14:12.414Z,99.90
2018-09-21T07:16:41.317Z,99.90
2018-09-21T07:19:10.075Z,99.90
2018-09-21T07:21:38.624Z,99.90
2018-09-21T07:24:07.159Z,99.90
2018-09-21T07:26:35.712Z,99.90
2018-09-21T07:29:04.283Z,99.90
2018-09-21T07:31:33.100Z,99.90
2018-09-21T07:34:01.802Z,99.90
2018-09-21T07:36:30.365Z,99.90
2018-09-21T07:38:59.021Z,99.90
2018-09-21T07:41:27.571Z,99.90
2018-09-21T07:43:56.163Z,99.90
2018-09-21T07:46:24.688Z,99.90
2018-09-21T07:48:53.230Z,99.90
2018-09-21T07:51:21.699Z,99.90
2018-09-21T07:53:50.226Z,99.90
2018-09-21T07:56:18.852Z,99.90
2018-09-21T07:58:47.471Z,99.90
2018-09-21T08:01:16.041Z,99.90
2018-09-21T08:03:44.620Z,99.90
2018-09-21T08:06:13.212Z,99.90
2018-09-21T08:08:41.865Z,99.90
2018-09-21T08:11:10.451Z,99.90
2018-09-21T08:13:39.023Z,99.90
2018-09-21T08:16:07.678Z,99.90
2018-09-21T08:18:36.311Z,99.90
2018-09-21T08:21:05.169Z,99.90
2018-09-21T08:23:33.680Z,99.90
2018-09-21T08:26:02.296Z,99.90
2018-09-21T08:28:30.861Z,99.90
2018-09-21T08:30:59.386Z,99.90
2018-09-21T08:33:27.956Z,99.90
2018-09-21T08:35:56.482Z,99.90
2018-09-21T08:38:24.961Z,99.90
2018-09-21T08:40:53.882Z,99.90
2018-09-21T08:43:22.490Z,99.90
2018-09-21T08:45:51.079Z,99.90
2018-09-21T08:48:19.663Z,99.90
2018-09-21T08:50:48.193Z,99.90
2018-09-21T08:53:16.762Z,99.90
2018-09-21T08:55:45.409Z,99.90
2018-09-21T08:58:13.962Z,99.90
2018-09-21T09:00:42.730Z,99.90
2018-09-21T09:03:11.738Z,99.90
2018-09-21T09:05:40.425Z,99.90
2018-09-21T09:08:09.041Z,99.90
2018-09-21T09:10:37.732Z,99.90
2018-09-21T09:13:06.389Z,99.90
2018-09-21T09:15:34.952Z,99.90
2018-09-21T09:18:03.564Z,99.90
2018-09-21T09:20:32.153Z,99.90
2018-09-21T09:23:00.816Z,99.90
2018-09-21T09:25:29.236Z,99.90
2018-09-21T09:27:57.770Z,99.90
2018-09-21T09:30:27.051Z,99.90
2018-09-21T09:32:55.601Z,99.90
2018-09-21T09:35:24.201Z,99.90
2018-09-21T09:37:52.839Z,99.90
2018-09-21T09:40:21.483Z,99.90
2018-09-21T09:42:50.160Z,99.90
2018-09-21T09:45:19.115Z,99.90
2018-09-21T09:47:47.744Z,99.90
2018-09-21T09:50:16.340Z,99.90
2018-09-21T09:52:44.899Z,99.90
2018-09-21T09:55:13.495Z,99.90
2018-09-21T09:57:42.076Z,99.90
2018-09-21T10:00:10.903Z,99.90
2018-09-21T10:02:39.413Z,99.90
2018-09-21T10:05:08.028Z,99.90
2018-09-21T10:07:37.482Z,99.90
2018-09-21T10:10:06.059Z,99.90
2018-09-21T10:12:34.735Z,99.90
2018-09-21T10:15:03.385Z,99.90
2018-09-21T10:17:32.613Z,99.90
2018-09-21T10:20:01.109Z,99.90
2018-09-21T10:22:29.814Z,99.90
2018-09-21T10:24:58.373Z,99.90
2018-09-21T10:27:27.106Z,99.90
2018-09-21T10:29:55.525Z,99.90
2018-09-21T10:32:24.079Z,99.90
2018-09-21T10:34:52.623Z,99.90
2018-09-21T10:37:21.264Z,99.90
2018-09-21T10:39:49.785Z,99.90
2018-09-21T10:42:18.384Z,99.90
2018-09-21T10:44:46.942Z,99.90
2018-09-21T10:47:15.493Z,99.90
2018-09-21T10:49:44.082Z,99.90
2018-09-21T10:52:12.698Z,99.90
2018-09-21T10:54:41.172Z,99.90
2018-09-21T10:57:09.993Z,99.90
2018-09-21T10:59:38.534Z,99.90
2018-09-21T11:02:06.889Z,99.90
2018-09-21T11:04:35.413Z,99.90
2018-09-21T11:07:03.999Z,99.90
2018-09-21T11:09:32.687Z,99.90
2018-09-21T11:12:01.261Z,99.90
2018-09-21T11:14:29.874Z,99.90
2018-09-21T11:16:58.487Z,99.90
2018-09-21T11:19:27.117Z,99.90
2018-09-21T11:21:55.692Z,99.90
2018-09-21T11:24:24.972Z,99.90
2018-09-21T11:26:53.789Z,99.90
2018-09-21T11:29:22.363Z,99.90
2018-09-21T11:31:50.923Z,99.90
2018-09-21T11:34:19.664Z,99.90
2018-09-21T11:36:48.232Z,99.90
2018-09-21T11:39:16.757Z,99.90
2018-09-21T11:41:45.353Z,99.90
2018-09-21T11:44:13.913Z,99.90
2018-09-21T11:46:42.517Z,99.90
2018-09-21T11:49:11.136Z,99.90
2018-09-21T11:51:39.719Z,99.90
2018-09-21T11:54:08.377Z,99.90
2018-09-21T11:56:36.974Z,99.90
2018-09-21T11:59:05.560Z,99.90
2018-09-21T12:01:34.466Z,99.90
2018-09-21T12:04:03.105Z,99.90
2018-09-21T12:06:31.669Z,99.90
2018-09-21T12:09:00.295Z,99.90
2018-09-21T12:11:28.855Z,99.90
2018-09-21T12:13:57.405Z,99.90
2018-09-21T12:16:26.176Z,99.90
2018-09-21T12:18:54.924Z,99.90
2018-09-21T12:21:23.635Z,99.90
2018-09-21T12:23:52.234Z,99.90
2018-09-21T12:26:20.727Z,99.90
2018-09-21T12:28:49.340Z,99.90
2018-09-21T12:31:17.921Z,99.90
2018-09-21T12:33:46.512Z,99.90
2018-09-21T12:36:15.279Z,99.90
2018-09-21T12:38:43.868Z,99.90
2018-09-21T12:41:12.535Z,99.90
2018-09-21T12:43:41.210Z,99.90
2018-09-21T12:46:14.990Z,99.90
2018-09-21T12:48:43.562Z,99.90
2018-09-21T12:51:12.337Z,99.90
2018-09-21T12:53:41.873Z,99.90
2018-09-21T12:56:10.435Z,99.90
2018-09-21T12:58:39.058Z,99.90
2018-09-21T13:01:07.776Z,99.90
2018-09-21T13:03:36.434Z,99.90
2018-09-21T13:06:05.023Z,99.90
2018-09-21T13:08:33.623Z,99.90
2018-09-21T13:11:02.147Z,99.90
2018-09-21T13:13:30.827Z,99.90
2018-09-21T13:15:59.529Z,99.90
2018-09-21T13:18:28.136Z,99.90
2018-09-21T13:20:56.690Z,99.90
2018-09-21T13:23:25.373Z,99.90
2018-09-21T13:25:53.972Z,99.90
2018-09-21T13:28:22.603Z,99.90
2018-09-21T13:30:51.315Z,99.90
2018-09-21T13:33:19.835Z,99.90
2018-09-21T13:35:48.860Z,99.90
2018-09-21T13:38:17.442Z,99.90
2018-09-21T13:40:46.154Z,99.90
2018-09-21T13:43:15.209Z,99.90
2018-09-21T13:45:43.799Z,99.90
2018-09-21T13:48:15.109Z,99.90
2018-09-21T13:50:43.895Z,99.90
2018-09-21T13:53:12.571Z,99.90
2018-09-21T13:55:41.487Z,99.90
2018-09-21T13:58:10.087Z,99.90
2018-09-21T14:00:38.676Z,99.90
2018-09-21T14:03:07.386Z,99.90
2018-09-21T14:05:36.119Z,99.90
2018-09-21T14:08:04.667Z,99.90
2018-09-21T14:10:33.244Z,99.90
2018-09-21T14:13:01.911Z,99.90
2018-09-21T14:15:30.509Z,99.90
2018-09-21T14:17:59.247Z,99.90
2018-09-21T14:20:27.794Z,99.90
2018-09-21T14:22:56.288Z,99.90
2018-09-21T14:25:24.860Z,99.90
2018-09-21T14:27:53.496Z,99.90
2018-09-21T14:30:22.099Z,99.90
2018-09-21T14:32:50.808Z,99.90
2018-09-21T14:35:19.742Z,99.90
2018-09-21T14:37:48.365Z,99.90
2018-09-21T14:40:17.143Z,99.90
2018-09-21T14:42:45.934Z,99.90
2018-09-21T14:45:14.644Z,99.90
2018-09-21T14:47:43.353Z,99.90
2018-09-21T14:50:12.005Z,99.90
2018-09-21T14:52:40.662Z,99.90
2018-09-21T14:55:09.837Z,99.90
2018-09-21T14:57:38.643Z,99.90
2018-09-21T15:00:07.391Z,99.90
2018-09-21T15:02:36.058Z,99.90
2018-09-21T15:05:06.794Z,99.90
2018-09-21T15:07:35.807Z,99.80
2018-09-21T15:10:04.555Z,99.70
2018-09-21T15:12:33.237Z,96.10
2018-09-21T15:15:02.260Z,95.90
2018-09-21T15:17:30.990Z,95.40
2018-09-21T15:19:59.611Z,94.40
2018-09-21T15:22:29.158Z,94.30
2018-09-21T15:24:57.836Z,94.40
2018-09-21T15:27:26.451Z,94.40
2018-09-21T15:29:55.072Z,94.10
2018-09-21T15:32:23.979Z,93.80
2018-09-21T15:34:52.738Z,94.20
2018-09-21T15:37:21.370Z,94.70
2018-09-21T15:39:50.365Z,95.10
2018-09-21T15:42:19.201Z,95.00
2018-09-21T15:44:47.925Z,94.50
2018-09-21T15:47:16.822Z,94.50
2018-09-21T15:49:45.446Z,94.90
2018-09-21T15:52:14.192Z,94.50
2018-09-21T15:54:42.912Z,94.60
2018-09-21T15:57:11.570Z,94.70
2018-09-21T15:59:40.269Z,93.60
2018-09-21T16:02:09.472Z,93.10
2018-09-21T16:04:38.098Z,93.20
2018-09-21T16:07:06.930Z,93.40
2018-09-21T16:09:35.515Z,93.20
2018-09-21T16:12:04.185Z,93.60
2018-09-21T16:14:33.367Z,93.90
2018-09-21T16:17:02.062Z,93.80
2018-09-21T16:19:30.865Z,93.70
2018-09-21T16:21:59.626Z,93.80
2018-09-21T16:24:29.000Z,94.20
2018-09-21T16:26:57.633Z,94.40
2018-09-21T16:29:26.304Z,94.20
2018-09-21T16:31:54.900Z,94.50
2018-09-21T16:34:23.715Z,95.10
2018-09-21T16:36:52.482Z,95.30
2018-09-21T16:39:21.245Z,95.10
2018-09-21T16:41:49.902Z,94.60
2018-09-21T16:44:18.717Z,95.00
2018-09-21T16:46:47.815Z,95.30
2018-09-21T16:49:16.612Z,94.80
2018-09-21T16:51:46.170Z,95.00
2018-09-21T16:54:14.779Z,94.50
2018-09-21T16:56:43.495Z,94.70
2018-09-21T16:59:12.146Z,94.00
2018-09-21T17:01:40.862Z,94.40
2018-09-21T17:04:09.508Z,94.70
2018-09-21T17:06:38.248Z,94.80
2018-09-21T17:09:09.373Z,94.20
2018-09-21T17:11:38.140Z,94.50
2018-09-21T17:14:07.353Z,94.30
2018-09-21T17:16:37.236Z,94.40
2018-09-21T17:19:05.995Z,94.60
2018-09-21T17:21:34.700Z,94.50
2018-09-21T17:24:03.458Z,94.60
2018-09-21T17:26:32.259Z,94.50
2018-09-21T17:29:00.908Z,94.50
2018-09-21T17:31:30.482Z,94.60
2018-09-21T17:33:59.152Z,95.00
2018-09-21T17:36:27.823Z,94.70
2018-09-21T17:38:56.504Z,95.10
2018-09-21T17:41:25.257Z,95.00
2018-09-21T17:43:54.394Z,94.80
2018-09-21T17:46:23.125Z,95.00
2018-09-21T17:48:51.917Z,95.00
2018-09-21T17:51:20.789Z,95.10
2018-09-21T17:53:49.710Z,95.10
2018-09-21T17:56:18.421Z,95.00
2018-09-21T17:58:47.146Z,95.10
2018-09-21T18:01:15.837Z,94.90
2018-09-21T18:03:44.771Z,94.90
2018-09-21T18:06:13.438Z,94.80
2018-09-21T18:08:42.059Z,95.20
2018-09-21T18:11:10.722Z,94.90
2018-09-21T18:13:39.382Z,95.30
2018-09-21T18:16:08.234Z,95.10
2018-09-21T18:18:37.020Z,95.20
2018-09-21T18:21:05.852Z,95.00
2018-09-21T18:23:34.600Z,95.50
2018-09-21T18:26:03.395Z,95.10
2018-09-21T18:28:32.104Z,95.50
2018-09-21T18:31:00.726Z,95.40
2018-09-21T18:33:29.419Z,95.50
2018-09-21T18:35:58.849Z,95.50
2018-09-21T18:38:27.701Z,94.60
2018-09-21T18:40:56.383Z,94.80
2018-09-21T18:43:25.099Z,94.50
2018-09-21T18:45:53.770Z,95.40
2018-09-21T18:48:22.491Z,95.70
2018-09-21T18:50:51.135Z,96.40
2018-09-21T18:53:19.810Z,96.90
2018-09-21T18:55:48.413Z,99.40
2018-09-21T18:58:17.176Z,99.70
2018-09-21T19:00:45.859Z,99.90
2018-09-21T19:03:14.675Z,99.90
2018-09-21T19:05:43.341Z,99.90
2018-09-21T19:08:11.971Z,99.90
2018-09-21T19:10:40.609Z,99.90
2018-09-21T19:13:09.315Z,99.90
2018-09-21T19:15:37.992Z,99.90
2018-09-21T19:18:06.797Z,99.90
2018-09-21T19:20:35.477Z,99.90
2018-09-21T19:23:04.122Z,99.90
2018-09-21T19:25:32.768Z,99.90
2018-09-21T19:28:01.523Z,99.90
2018-09-21T19:30:30.224Z,99.90
2018-09-21T19:32:58.952Z,99.90
2018-09-21T19:35:27.814Z,99.90
2018-09-21T19:37:56.679Z,99.90
2018-09-21T19:40:25.369Z,99.90
2018-09-21T19:42:54.296Z,99.90
2018-09-21T19:45:22.989Z,99.90
2018-09-21T19:47:51.434Z,99.90
2018-09-21T19:50:20.117Z,99.90
2018-09-21T19:52:48.772Z,99.90
2018-09-21T19:55:17.406Z,99.90
2018-09-21T19:57:46.042Z,99.90
2018-09-21T20:00:14.696Z,99.90
2018-09-21T20:02:43.369Z,99.90
2018-09-21T20:05:12.044Z,99.90
2018-09-21T20:07:40.711Z,99.90
2018-09-21T20:10:09.441Z,99.90
2018-09-21T20:12:38.107Z,99.90
2018-09-21T20:15:06.927Z,99.90
2018-09-21T20:17:35.504Z,99.90
2018-09-21T20:20:04.271Z,99.90
2018-09-21T20:22:32.970Z,99.90
2018-09-21T20:25:01.715Z,99.90
2018-09-21T20:27:30.442Z,99.90
2018-09-21T20:30:04.338Z,99.90
2018-09-21T20:33:37.742Z,99.90
2018-09-21T20:36:06.434Z,99.90
2018-09-21T20:38:35.122Z,99.90
2018-09-21T20:41:04.176Z,99.90
2018-09-21T20:43:33.183Z,99.90
2018-09-21T20:46:02.368Z,99.90
2018-09-21T20:48:31.023Z,99.90
2018-09-21T20:50:59.776Z,99.90
2018-09-21T20:53:28.539Z,99.90
2018-09-21T20:55:57.194Z,99.90
2018-09-21T20:58:25.854Z,99.90
2018-09-21T21:00:55.360Z,99.90
2018-09-21T21:03:24.014Z,99.90
2018-09-21T21:05:52.673Z,99.90
2018-09-21T21:08:21.432Z,99.90
2018-09-21T21:10:50.145Z,99.90
2018-09-21T21:13:18.751Z,99.90
2018-09-21T21:15:47.458Z,99.90
2018-09-21T21:18:16.156Z,99.90
2018-09-21T21:20:44.790Z,99.90
2018-09-21T21:23:13.370Z,99.90
2018-09-21T21:25:42.194Z,99.90
2018-09-21T21:28:10.947Z,99.90
2018-09-21T21:30:39.627Z,99.90
2018-09-21T21:33:08.393Z,99.90
2018-09-21T21:35:37.140Z,99.90
2018-09-21T21:38:05.702Z,99.90
2018-09-21T21:40:34.307Z,99.90
2018-09-21T21:43:02.920Z,99.90
2018-09-21T21:45:31.693Z,99.90
2018-09-21T21:48:00.419Z,99.90
2018-09-21T21:50:29.234Z,99.90
2018-09-21T21:52:57.860Z,99.90
2018-09-21T21:55:26.492Z,99.90
2018-09-21T21:57:55.245Z,99.90
2018-09-21T22:00:24.058Z,99.90
2018-09-21T22:02:52.661Z,99.90
2018-09-21T22:05:21.515Z,99.90
2018-09-21T22:07:50.180Z,99.90
2018-09-21T22:10:18.916Z,99.90
2018-09-21T22:12:52.949Z,99.90
2018-09-21T22:15:21.726Z,99.90
2018-09-21T22:17:50.577Z,99.90
2018-09-21T22:20:19.194Z,99.90
2018-09-21T22:22:47.921Z,99.90
2018-09-21T22:25:16.619Z,99.90
2018-09-21T22:27:45.301Z,99.90
2018-09-21T22:30:14.161Z,99.90
2018-09-21T22:32:42.999Z,99.90
2018-09-21T22:35:11.764Z,99.90
2018-09-21T22:37:40.401Z,99.90
2018-09-21T22:40:09.026Z,99.90
2018-09-21T22:42:44.987Z,99.90
2018-09-21T22:45:13.750Z,99.90
2018-09-21T22:47:42.645Z,99.90
2018-09-21T22:50:11.260Z,99.90
2018-09-21T22:52:39.849Z,99.90
2018-09-21T22:55:08.539Z,99.90
2018-09-21T22:57:37.085Z,99.90
2018-09-21T23:00:05.752Z,99.90
2018-09-21T23:02:34.476Z,99.90
2018-09-21T23:05:03.270Z,99.90
2018-09-21T23:07:32.048Z,99.90
2018-09-21T23:10:00.754Z,99.90
2018-09-21T23:12:29.410Z,99.90
2018-09-21T23:14:58.068Z,99.90
2018-09-21T23:17:26.650Z,99.90
2018-09-21T23:19:55.278Z,99.90
2018-09-21T23:22:23.895Z,99.90
2018-09-21T23:24:52.553Z,99.90
2018-09-21T23:27:21.237Z,99.90
2018-09-21T23:29:49.860Z,99.90
2018-09-21T23:32:18.650Z,99.90
2018-09-21T23:34:47.281Z,99.90
2018-09-21T23:37:15.943Z,99.90
2018-09-21T23:39:44.607Z,99.90
2018-09-21T23:42:13.157Z,99.90
2018-09-21T23:44:41.714Z,99.90
2018-09-21T23:47:10.377Z,99.90
2018-09-21T23:49:38.976Z,99.90
2018-09-21T23:52:07.585Z,99.90
2018-09-21T23:54:36.333Z,99.90
2018-09-21T23:57:05.014Z,99.90
2018-09-21T23:59:33.745Z,99.90
